RJAASBGR

Guest
Details From RJAA - Narita Intl
To SBGR - Sao Paulo - Guarulhos
Flight Number -
Tags Generated
Created
Modified
Stats Distance 9,991 nm / 18,503 km
Max Altitude 0 ft / 0 m
Waypoints 13
Social Downloads 4
Likes 0
Share VATSIM

Download

Looking for another format? Having issues loading an existing format? Contact us
Advertisement - Login to hide

Notes

Generated

Route

RJAA GEBTA BOTER N5920 TIBUD LANGS CINDI WAAVE MODAT SBG ABAFT IG SBGR

ID Type Via Altitude Latitude Longitude Leg Dist Tot Dist Heading (true) Name
O RJAA APT - 0 ft / 0 m 35.80271˚ 140.37991˚ - 0 nm - -
GEBTA FIX - 0 ft / 0 m 54.23333˚ 157.81667˚ 1323 nm 1323 nm 28° / 40° -
BOTER FIX - 0 ft / 0 m 63.75556˚ -112.95972˚ 2582 nm 3906 nm 40° / 121° -
N5920 FIX - 0 ft / 0 m 59.33333˚ -100.00000˚ 454 nm 4361 nm 120° / 131° -
TIBUD FIX - 0 ft / 0 m 45.57492˚ -81.44453˚ 1062 nm 5423 nm 133° / 148° -
LANGS FIX - 0 ft / 0 m 42.58317˚ -78.86972˚ 211 nm 5634 nm 147° / 149° -
CINDI FIX - 0 ft / 0 m 39.24794˚ -76.31447˚ 231 nm 5866 nm 149° / 151° -
WAAVE FIX - 0 ft / 0 m 36.19017˚ -74.20984˚ 209 nm 6075 nm 151° / 152° -
MODAT FIX - 0 ft / 0 m 10.10333˚ -60.93333˚ 1725 nm 7800 nm 152° / 157° -
SBG NDB - 0 ft / 0 m -16.58049˚ -49.69823˚ 1736 nm 9536 nm 157° / 157° SANTA BARBARA NDB
ABAFT FIX - 0 ft / 0 m -20.40958˚ -47.90858˚ 251 nm 9788 nm 156° / 156° -
IG NDB - 0 ft / 0 m -23.46217˚ -46.57333˚ 197 nm 9985 nm 158° / 158° TUCA NDB
O SBGR APT - 0 ft / 0 m -23.43891˚ -46.48745˚ 4 nm 9990 nm 74° / 74° -

Altitude Profile

Advertisement - Login to hide

Weather


0- 5 10 15 20 25 30 35+ Temperature / ° C

Clouds and Precipitation
Forecast for 2017-12-12 18:00 UTC. Updated an hour ago

Ground ~20,000 ft ~40,000 ft Winds

RJAA

Details ICAO RJAA (NRT)
Name NARITA INTL
Region Japan
Timezone Asia/Tokyo (UTC+9.0)
Stats Elevation 141 ft / 43 m (AMSL)
Location 35.776552° 140.382770°
Runways 2
Magnetic Variation 7.405° W

METAR

RJAA 121600Z 32003KT 9999 FEW030 01/M08 Q1013 NOSIG

Decode

TAF

TAF RJAA 121105Z 1212/1318 32006KT 9999 FEW030= TAF RJBB 121105Z 1212/1318 30020KT 9999 FEW020 BKN050 TEMPO 1303/1306 30023G33KT BECMG 1312/1315 34015KT

Decode

Departure Runways

ID Width Length Bearing (true) Bearing (mag) Surface Threshold Offset Overrun Length
16L 196 ft / 60 m 7,162 ft / 2,183 m 149.61° 157.02° Asphalt 190 ft / 58 m 0 ft / 0 m
16R 196 ft / 60 m 13,142 ft / 4,006 m 149.61° 157.02° Asphalt 0 ft / 0 m 410 ft / 125 m
34L 196 ft / 60 m 13,142 ft / 4,006 m 329.62° 337.03° Asphalt 0 ft / 0 m 415 ft / 126 m
34R 196 ft / 60 m 7,162 ft / 2,183 m 329.62° 337.03° Asphalt 190 ft / 58 m 0 ft / 0 m

SBGR

Details ICAO SBGR (GRU)
Name Sao Paulo - Guarulhos
Region Brazil
Timezone America/Sao_Paulo (UTC-2.0)
Stats Elevation 2,459 ft / 750 m (AMSL)
Location -23.432333° -46.469675°
Runways 2
Magnetic Variation 21.413° W

METAR

SBGR 121600Z 12009KT 9999 OVC021 21/17 Q1019

Decode

TAF

TAF SBGR 120830Z 1212/1318 15010KT 8000 OVC009 TN16/1308Z TX25/1317Z BECMG 1212/1214 9999 BKN017 BECMG 1218/1220 BKN011 BECMG 1223/1301 13005KT OVC009 BECMG 1312/1314 9999 BKN020 PROB40 1315/1318 SCT020 RMK PHH

Decode

Destination Runways

ID Width Length Bearing (true) Bearing (mag) Surface Threshold Offset Overrun Length
09L 148 ft / 45 m 12,676 ft / 3,864 m 73.61° 95.02° Asphalt 495 ft / 151 m 0 ft / 0 m
09R 148 ft / 45 m 9,950 ft / 3,033 m 73.60° 95.01° Asphalt 0 ft / 0 m 197 ft / 60 m
27L 148 ft / 45 m 9,950 ft / 3,033 m 253.59° 275.00° Asphalt 0 ft / 0 m 197 ft / 60 m
27R 148 ft / 45 m 12,676 ft / 3,864 m 253.60° 275.01° Asphalt 197 ft / 60 m 0 ft / 0 m

Approach Navaids

Runway Type Ident Frequency Range Bearing (true) Bearing (mag) Slope Elevation
09L Localiser IUC 110.70 MHz 18 nm / 33 km 73.64° 95.06° - 2,459 ft / 750 m (AMSL)
09L Glidescope IUC 110.70 MHz 10 nm / 19 km 73.61° 95.02° 2.97° 2,459 ft / 750 m (AMSL)
09R Localiser IGR 111.50 MHz 18 nm / 33 km 73.67° 95.08° - 2,459 ft / 750 m (AMSL)
09R Glidescope IGR 111.50 MHz 10 nm / 19 km 73.60° 95.01° 2.92° 2,459 ft / 750 m (AMSL)
27L Localiser IBC 111.10 MHz 18 nm / 33 km 253.56° 274.98° - 2,459 ft / 750 m (AMSL)
27L Glidescope IBC 111.10 MHz 10 nm / 19 km 253.60° 275.01° 3.00° 2,459 ft / 750 m (AMSL)
27R Localiser IGS 111.90 MHz 18 nm / 33 km 253.54° 274.95° - 2,459 ft / 750 m (AMSL)
27R Glidescope IGS 111.90 MHz 10 nm / 19 km 253.60° 275.02° 3.00° 2,459 ft / 750 m (AMSL)

Popular Alternatives